Time;durP1;ratioP1;P1;durP2;ratioP2;P2;SDS_P1;SDS_P2;PMS_P1;PMS_P2;Temp;Humidity;BMP_temperature;BMP_pressure;BME280_temperature;BME280_humidity;BME280_pressure;Samples;Min_cycle;Max_cycle;Signal;HPM_P1;HPM_P2
2022/09/28 00:00:06;;;;;;;8.80;7.13;;;;;;;7.43;100.00;99415.69;5032390;28;20029;-73
2022/09/28 00:02:32;;;;;;;11.82;7.57;;;;;;;7.40;100.00;99419.66;5029984;28;20021;-70
2022/09/28 00:04:57;;;;;;;8.85;7.22;;;;;;;7.39;100.00;99426.09;5030810;28;20708;-70
2022/09/28 00:07:22;;;;;;;10.43;7.47;;;;;;;7.37;100.00;99425.53;5032392;28;20021;-72
2022/09/28 00:09:48;;;;;;;9.55;7.55;;;;;;;7.38;100.00;99423.66;5032233;28;20029;-73
2022/09/28 00:12:13;;;;;;;11.10;7.88;;;;;;;7.39;100.00;99422.59;5032305;28;20036;-72
2022/09/28 00:14:43;;;;;;;10.98;8.18;;;;;;;7.38;100.00;99420.94;5031521;28;20465;-73
2022/09/28 00:17:08;;;;;;;12.52;8.73;;;;;;;7.40;100.00;99418.88;5031198;28;20034;-71
2022/09/28 00:19:34;;;;;;;10.15;8.45;;;;;;;7.43;100.00;99418.38;5032145;28;20025;-71
2022/09/28 00:21:59;;;;;;;11.32;8.15;;;;;;;7.44;100.00;99414.63;5031992;28;20510;-70
2022/09/28 00:24:24;;;;;;;12.93;8.63;;;;;;;7.44;100.00;99414.63;5030046;28;20029;-71
2022/09/28 00:26:53;;;;;;;11.63;8.85;;;;;;;7.40;100.00;99413.47;5032481;28;20047;-73
2022/09/28 00:29:18;;;;;;;9.35;8.07;;;;;;;7.42;100.00;99414.03;5032125;28;20033;-69
2022/09/28 00:31:43;;;;;;;12.75;8.55;;;;;;;7.38;100.00;99402.13;5031142;28;20025;-70
2022/09/28 00:34:09;;;;;;;13.68;8.55;;;;;;;7.39;100.00;99404.56;5020853;28;20034;-72
2022/09/28 00:36:35;;;;;;;10.15;8.43;;;;;;;7.41;100.00;99399.78;5027368;28;20104;-71
2022/09/28 00:39:06;;;;;;;14.15;8.75;;;;;;;7.44;100.00;99398.47;5012317;28;20032;-72
2022/09/28 00:41:32;;;;;;;10.82;8.88;;;;;;;7.47;100.00;99397.97;5012115;28;20018;-72
2022/09/28 00:44:25;;;;;;;9.95;8.23;;;;;;;7.55;100.00;99399.47;5011994;28;20018;-72
2022/09/28 00:47:16;;;;;;;11.48;7.88;;;;;;;7.51;100.00;99391.06;5012214;28;20377;-70
2022/09/28 00:49:47;;;;;;;9.48;8.25;;;;;;;7.47;100.00;99387.22;4993055;28;20350;-71
2022/09/28 00:52:41;;;;;;;10.88;8.60;;;;;;;7.47;100.00;99384.53;5010832;28;20120;-70
2022/09/28 00:55:10;;;;;;;11.93;8.13;;;;;;;7.46;100.00;99388.28;5029542;28;20091;-72
2022/09/28 00:57:38;;;;;;;13.13;8.73;;;;;;;7.46;100.00;99374.84;5030439;28;20055;-72
2022/09/28 01:00:05;;;;;;;13.35;9.05;;;;;;;7.44;100.00;99380.47;5030687;28;20048;-70
2022/09/28 01:02:30;;;;;;;13.18;8.23;;;;;;;7.44;100.00;99371.56;5029288;28;20453;-71
2022/09/28 01:04:58;;;;;;;10.35;8.50;;;;;;;7.47;100.00;99373.75;5015297;28;20037;-69
2022/09/28 01:07:23;;;;;;;12.43;8.90;;;;;;;7.48;100.00;99378.09;5015450;28;20017;-73
2022/09/28 01:09:49;;;;;;;11.23;8.50;;;;;;;7.48;100.00;99366.53;5015931;28;20032;-71
2022/09/28 01:12:15;;;;;;;11.63;9.20;;;;;;;7.52;100.00;99375.72;5015453;28;20057;-70
2022/09/28 01:14:42;;;;;;;14.30;9.05;;;;;;;7.54;100.00;99377.13;5029502;28;20036;-70
2022/09/28 01:17:16;;;;;;;10.65;8.63;;;;;;;7.57;100.00;99383.91;5035289;28;20039;-73
2022/09/28 01:20:19;;;;;;;11.15;9.50;;;;;;;7.61;100.00;99385.88;5035179;28;20018;-73
2022/09/28 01:23:16;;;;;;;12.38;9.40;;;;;;;7.66;100.00;99381.66;5033954;28;20063;-73
2022/09/28 01:25:57;;;;;;;10.80;8.93;;;;;;;7.62;100.00;99376.75;5034131;28;20028;-72
2022/09/28 01:28:25;;;;;;;11.40;9.82;;;;;;;7.61;100.00;99377.81;5033512;28;20061;-70
2022/09/28 01:31:05;;;;;;;13.70;10.20;;;;;;;7.59;100.00;99382.63;5035261;28;20128;-71
2022/09/28 01:33:40;;;;;;;14.13;10.25;;;;;;;7.56;100.00;99388.50;5029878;28;20080;-71
2022/09/28 01:36:14;;;;;;;14.68;11.00;;;;;;;7.55;100.00;99388.69;5030724;28;20033;-71
2022/09/28 01:39:01;;;;;;;15.52;10.57;;;;;;;7.55;100.00;99386.84;5015226;28;20026;-73
2022/09/28 01:41:30;;;;;;;14.68;11.32;;;;;;;7.55;100.00;99386.84;5015448;28;20040;-72
2022/09/28 01:44:01;;;;;;;15.63;12.20;;;;;;;7.55;100.00;99397.63;5022182;28;20026;-70
2022/09/28 01:46:34;;;;;;;17.23;11.93;;;;;;;7.58;100.00;99401.72;5033531;28;20018;-72
2022/09/28 01:49:09;;;;;;;15.48;12.35;;;;;;;7.57;100.00;99395.50;5034649;28;20045;-72
2022/09/28 01:51:40;;;;;;;18.33;12.85;;;;;;;7.58;100.00;99391.75;5034390;28;20026;-72
2022/09/28 01:54:12;;;;;;;17.13;13.75;;;;;;;7.58;100.00;99390.94;5029578;28;20158;-73
2022/09/28 01:56:46;;;;;;;17.58;13.85;;;;;;;7.61;100.00;99399.34;5029757;28;20029;-70
2022/09/28 01:59:16;;;;;;;17.52;13.95;;;;;;;7.58;100.00;99391.75;5014607;28;20029;-74
2022/09/28 02:01:48;;;;;;;20.10;14.52;;;;;;;7.58;100.00;99393.63;5012205;28;20033;-73
2022/09/28 02:04:16;;;;;;;;;;;;;;;7.62;100.00;99389.38;5015145;28;20033;-71
2022/09/28 02:07:03;;;;;;;19.17;13.95;;;;;;;7.57;100.00;99384.72;5014635;28;19919;-72
2022/09/28 02:09:37;;;;;;;15.75;12.70;;;;;;;7.61;100.00;99385.06;5014303;28;20373;-73
2022/09/28 02:12:30;;;;;;;23.52;13.88;;;;;;;7.57;100.00;99382.03;5014493;28;20075;-70
2022/09/28 02:15:05;;;;;;;21.20;12.23;;;;;;;7.59;100.00;99377.25;5008645;28;20056;-72
2022/09/28 02:17:30;;;;;;;15.07;11.73;;;;;;;7.57;100.00;99384.72;5013240;28;20030;-71
2022/09/28 02:19:56;;;;;;;14.23;11.23;;;;;;;7.55;100.00;99381.47;5014349;28;20479;-72
2022/09/28 02:22:30;;;;;;;13.77;10.90;;;;;;;7.58;100.00;99386.38;5014241;28;20516;-72
2022/09/28 02:25:08;;;;;;;13.20;10.45;;;;;;;7.55;100.00;99386.84;5014063;28;20426;-70
2022/09/28 02:27:54;;;;;;;13.25;9.55;;;;;;;7.55;100.00;99386.84;5014017;28;20457;-72
2022/09/28 02:30:19;;;;;;;15.25;9.82;;;;;;;7.47;100.00;99389.09;5028656;28;20421;-73
2022/09/28 02:32:48;;;;;;;12.02;8.65;;;;;;;7.45;100.00;99386.66;5029526;28;20032;-71
2022/09/28 02:35:17;;;;;;;11.20;8.90;;;;;;;7.43;100.00;99372.63;5029541;28;20018;-73
2022/09/28 02:37:43;;;;;;;11.45;7.88;;;;;;;7.41;100.00;99383.63;5032622;28;20112;-71
2022/09/28 02:40:14;;;;;;;9.70;7.88;;;;;;;7.42;100.00;99385.25;5032721;28;20030;-73
2022/09/28 02:43:14;;;;;;;13.30;7.93;;;;;;;7.45;100.00;99392.03;5028055;28;20377;-73
2022/09/28 02:45:51;;;;;;;13.80;7.35;;;;;;;7.37;100.00;99387.84;5004668;28;20220;-73
2022/09/28 02:48:17;;;;;;;10.57;7.95;;;;;;;7.37;100.00;99381.66;5023639;28;20033;-74
2022/09/28 02:51:04;;;;;;;10.60;7.40;;;;;;;7.38;100.00;99391.34;5033444;28;20484;-72
2022/09/28 02:53:30;;;;;;;12.65;7.45;;;;;;;7.34;100.00;99390.22;5033290;28;20096;-71
2022/09/28 02:56:04;;;;;;;16.10;7.47;;;;;;;7.37;100.00;99395.13;5024570;28;20037;-73
2022/09/28 02:59:00;;;;;;;9.18;7.60;;;;;;;7.33;100.00;99394.75;5013437;28;20032;-72
2022/09/28 03:01:40;;;;;;;10.05;6.95;;;;;;;7.32;100.00;99395.81;5010907;28;20018;-74
2022/09/28 03:04:08;;;;;;;8.77;6.20;;;;;;;7.27;100.00;99396.53;5013506;28;20022;-70
2022/09/28 03:06:40;;;;;;;7.85;6.20;;;;;;;7.27;100.00;99401.91;5013176;28;20619;-72
2022/09/28 03:09:24;;;;;;;8.65;6.50;;;;;;;7.25;100.00;99404.03;5013756;28;20013;-73
2022/09/28 03:11:57;;;;;;;8.60;5.82;;;;;;;7.27;100.00;99395.72;5029009;28;20018;-69
2022/09/28 03:14:23;;;;;;;9.27;6.78;;;;;;;7.26;100.00;99399.47;5013452;28;20426;-72
2022/09/28 03:16:49;;;;;;;9.52;5.85;;;;;;;7.23;100.00;99398.09;5019801;28;20100;-73
2022/09/28 03:19:18;;;;;;;10.18;5.97;;;;;;;7.23;100.00;99406.16;5032933;28;20048;-73
2022/09/28 03:21:43;;;;;;;9.18;6.45;;;;;;;7.25;100.00;99392.47;5033045;28;20096;-72
2022/09/28 03:24:09;;;;;;;8.30;6.20;;;;;;;7.23;100.00;99395.41;5031788;28;20029;-72
2022/09/28 03:26:35;;;;;;;10.05;5.43;;;;;;;7.24;100.00;99398.91;5027655;28;20057;-71
2022/09/28 03:29:00;;;;;;;9.43;5.80;;;;;;;7.24;100.00;99399.69;5012844;28;20033;-72
2022/09/28 03:31:26;;;;;;;7.00;5.20;;;;;;;7.26;100.00;99394.06;5012833;28;20021;-71
2022/09/28 03:33:51;;;;;;;6.47;4.88;;;;;;;7.24;100.00;99394.31;5013295;28;20022;-72
2022/09/28 03:36:17;;;;;;;8.43;5.40;;;;;;;7.24;100.00;99402.38;5030167;28;20017;-69
2022/09/28 03:38:42;;;;;;;6.93;5.03;;;;;;;7.25;100.00;99390.59;5032490;28;20041;-71
2022/09/28 03:41:08;;;;;;;7.20;4.60;;;;;;;7.23;100.00;99400.78;5031621;28;20112;-72
2022/09/28 03:43:34;;;;;;;8.98;5.10;;;;;;;7.23;100.00;99399.94;5031347;28;20448;-71
2022/09/28 03:46:00;;;;;;;8.05;4.80;;;;;;;7.19;100.00;99399.59;5031331;28;20407;-70
2022/09/28 03:48:31;;;;;;;7.28;4.97;;;;;;;7.20;100.00;99401.25;5012994;28;20041;-71
2022/09/28 03:50:59;;;;;;;7.70;4.83;;;;;;;7.17;100.00;99396.34;5013375;28;20060;-72
2022/09/28 03:53:25;;;;;;;7.30;4.68;;;;;;;7.17;100.00;99399.03;5012896;28;20357;-72
2022/09/28 03:55:52;;;;;;;5.57;4.60;;;;;;;7.19;100.00;99398.81;5012672;28;20026;-70
2022/09/28 03:58:21;;;;;;;8.18;4.55;;;;;;;7.16;100.00;99400.09;5027628;28;20025;-71
2022/09/28 04:00:47;;;;;;;6.13;4.32;;;;;;;7.15;100.00;99398.44;5010012;28;20052;-72
2022/09/28 04:03:13;;;;;;;9.00;4.05;;;;;;;7.12;100.00;99404.31;5027885;28;20021;-71
2022/09/28 04:05:38;;;;;;;6.88;4.00;;;;;;;7.13;100.00;99405.94;5012348;28;20461;-70
2022/09/28 04:08:04;;;;;;;6.00;3.97;;;;;;;7.12;100.00;99398.91;5012467;28;20030;-71
2022/09/28 04:10:29;;;;;;;5.40;3.67;;;;;;;7.14;100.00;99410.28;5012394;28;20040;-71
2022/09/28 04:12:56;;;;;;;6.05;3.55;;;;;;;7.12;100.00;99414.25;5012897;28;20026;-71
2022/09/28 04:15:23;;;;;;;5.85;3.58;;;;;;;7.15;100.00;99403.03;5012528;28;20092;-71
2022/09/28 04:17:48;;;;;;;5.97;3.30;;;;;;;7.15;100.00;99400.31;5025681;28;20036;-73
2022/09/28 04:20:14;;;;;;;5.75;3.33;;;;;;;7.16;100.00;99404.66;5032518;28;20116;-73
2022/09/28 04:22:39;;;;;;;3.97;2.90;;;;;;;7.18;100.00;99405.22;5032257;28;20029;-72
2022/09/28 04:25:05;;;;;;;4.65;3.15;;;;;;;7.17;100.00;99409.81;5032367;28;20484;-70
2022/09/28 04:30:15;;;;;;;4.07;2.63;;;;;;;7.24;100.00;99404.28;5012675;28;20041;-72
2022/09/28 04:32:40;;;;;;;5.47;2.58;;;;;;;7.24;100.00;99398.91;5010947;28;20109;-73
2022/09/28 04:35:06;;;;;;;4.28;2.53;;;;;;;7.22;100.00;99393.75;5012321;28;20022;-74
2022/09/28 04:37:32;;;;;;;3.00;2.70;;;;;;;7.19;100.00;99388.03;5011981;28;20030;-71
2022/09/28 04:39:57;;;;;;;4.07;2.30;;;;;;;7.18;100.00;99397.97;5027889;28;20094;-74
2022/09/28 04:42:23;;;;;;;3.95;2.50;;;;;;;7.18;100.00;99395.28;5016447;28;20026;-71
2022/09/28 04:44:48;;;;;;;6.38;2.30;;;;;;;7.18;100.00;99391.78;5015810;28;20361;-71
2022/09/28 04:47:13;;;;;;;3.38;2.20;;;;;;;7.18;100.00;99399.84;5027671;28;20029;-72
2022/09/28 04:49:39;;;;;;;2.70;2.10;;;;;;;7.16;100.00;99394.72;5035901;28;20345;-71
2022/09/28 04:52:05;;;;;;;7.70;2.28;;;;;;;7.12;100.00;99404.31;5034478;28;20465;-71
2022/09/28 04:54:30;;;;;;;2.97;2.28;;;;;;;7.08;100.00;99406.66;5034289;28;20013;-72
2022/09/28 04:56:56;;;;;;;4.95;2.22;;;;;;;7.04;100.00;99408.19;5030610;28;20112;-70
2022/09/28 04:59:22;;;;;;;3.83;2.20;;;;;;;7.03;100.00;99409.22;5014645;28;20024;-73
2022/09/28 05:01:48;;;;;;;2.83;2.10;;;;;;;7.05;100.00;99414.38;5028510;28;20351;-70
2022/09/28 05:04:15;;;;;;;3.53;2.10;;;;;;;6.98;100.00;99419.88;5031136;28;20022;-72
2022/09/28 05:06:41;;;;;;;6.68;2.17;;;;;;;6.95;100.00;99411.50;5015491;28;20048;-74
2022/09/28 05:09:06;;;;;;;5.68;2.20;;;;;;;6.96;100.00;99416.63;5031040;28;20105;-71
2022/09/28 05:11:32;;;;;;;6.43;1.95;;;;;;;6.90;100.00;99413.00;5015686;28;20441;-71
2022/09/28 05:13:57;;;;;;;3.55;2.00;;;;;;;6.94;100.00;99415.22;5015912;28;20461;-71
2022/09/28 05:16:24;;;;;;;2.72;2.10;;;;;;;6.89;100.00;99411.34;5015580;28;20029;-73
2022/09/28 05:18:54;;;;;;;3.92;2.20;;;;;;;6.87;100.00;99413.47;5032116;28;20061;-71
2022/09/28 05:21:19;;;;;;;3.45;2.22;;;;;;;6.88;100.00;99416.97;5035514;28;20092;-72
2022/09/28 05:23:45;;;;;;;4.18;2.42;;;;;;;6.87;100.00;99416.16;5050514;28;20067;-73
2022/09/28 05:26:10;;;;;;;6.22;2.25;;;;;;;6.84;100.00;99415.81;5033816;28;20116;-72
2022/09/28 05:28:36;;;;;;;4.18;2.88;;;;;;;6.83;100.00;99417.69;5019312;28;20442;-70
2022/09/28 05:31:03;;;;;;;6.60;2.83;;;;;;;6.79;100.00;99419.19;5030487;28;20045;-73
2022/09/28 05:33:29;;;;;;;8.50;2.92;;;;;;;6.82;100.00;99423.28;5015143;28;20080;-70
2022/09/28 05:35:55;;;;;;;4.30;2.80;;;;;;;6.78;100.00;99417.59;5013702;28;20025;-72
2022/09/28 05:38:20;;;;;;;6.70;3.10;;;;;;;6.79;100.00;99413.81;5027659;28;20044;-72
2022/09/28 05:40:45;;;;;;;9.85;3.10;;;;;;;6.78;100.00;99414.06;5035033;28;20029;-73
2022/09/28 05:43:11;;;;;;;7.75;3.67;;;;;;;6.78;100.00;99412.22;5035078;28;20108;-70
2022/09/28 05:45:36;;;;;;;7.60;3.50;;;;;;;6.74;100.00;99417.22;5034774;28;20030;-72
2022/09/28 05:48:01;;;;;;;5.75;3.67;;;;;;;6.75;100.00;99412.69;5024394;28;20021;-70
2022/09/28 05:50:27;;;;;;;6.88;3.95;;;;;;;6.78;100.00;99414.91;5014970;28;20018;-71
2022/09/28 05:53:04;;;;;;;9.70;4.30;;;;;;;6.81;100.00;99416.28;5014358;28;20034;-72
2022/09/28 05:55:31;;;;;;;11.70;4.47;;;;;;;6.82;100.00;99431.38;5034661;28;20022;-71
2022/09/28 05:57:58;;;;;;;7.97;4.55;;;;;;;6.81;100.00;99419.81;5025244;28;20041;-71
2022/09/28 06:00:23;;;;;;;6.20;4.65;;;;;;;6.84;100.00;99430.09;5012840;28;20037;-72
2022/09/28 06:03:00;;;;;;;7.13;5.28;;;;;;;6.81;100.00;99438.63;5013220;28;20018;-70
2022/09/28 06:05:27;;;;;;;7.93;5.40;;;;;;;6.80;100.00;99434.28;5013543;28;20030;-71
2022/09/28 06:07:58;;;;;;;11.80;5.35;;;;;;;6.86;100.00;99427.16;5014485;28;20025;-70
2022/09/28 06:10:24;;;;;;;8.85;5.50;;;;;;;6.80;100.00;99433.47;5029956;28;20089;-72
2022/09/28 06:12:54;;;;;;;7.85;5.55;;;;;;;6.80;100.00;99423.53;5014485;28;20053;-72
2022/09/28 06:15:21;;;;;;;5.90;5.20;;;;;;;6.81;100.00;99443.16;5014706;28;20025;-71
2022/09/28 06:17:46;;;;;;;7.80;5.30;;;;;;;6.82;100.00;99444.81;5012976;28;20037;-72
2022/09/28 06:20:12;;;;;;;10.18;6.13;;;;;;;6.81;100.00;99445.84;5014369;28;20038;-73
2022/09/28 06:22:38;;;;;;;7.47;5.38;;;;;;;6.80;100.00;99444.22;5014383;28;20030;-71
2022/09/28 06:25:05;;;;;;;7.53;5.90;;;;;;;6.78;100.00;99441.78;5014477;28;20029;-72
2022/09/28 06:27:31;;;;;;;6.43;5.78;;;;;;;6.77;100.00;99440.13;5014316;28;20084;-76
2022/09/28 06:29:56;;;;;;;10.75;6.18;;;;;;;6.79;100.00;99445.28;5014196;28;20030;-73
2022/09/28 06:32:21;;;;;;;10.40;6.75;;;;;;;6.80;100.00;99447.72;5014123;28;20026;-71
2022/09/28 06:34:47;;;;;;;8.52;6.63;;;;;;;6.82;100.00;99442.13;5013859;28;20056;-74
2022/09/28 06:37:12;;;;;;;9.38;7.30;;;;;;;6.86;100.00;99449.47;5015169;28;20401;-71
2022/09/28 06:39:37;;;;;;;9.15;7.20;;;;;;;6.89;100.00;99453.56;5033774;28;20104;-73
2022/09/28 06:42:03;;;;;;;9.27;8.02;;;;;;;6.92;100.00;99458.47;5034236;28;20059;-72
2022/09/28 06:44:29;;;;;;;12.48;8.20;;;;;;;6.97;100.00;99458.59;5033487;28;20462;-72
2022/09/28 06:46:57;;;;;;;13.82;8.43;;;;;;;7.02;100.00;99460.56;5033644;28;20352;-72
2022/09/28 06:49:22;;;;;;;13.65;8.27;;;;;;;7.00;100.00;99463.50;5032888;28;20060;-70
2022/09/28 06:51:48;;;;;;;14.60;9.27;;;;;;;7.03;100.00;99457.63;5032241;28;20391;-70
2022/09/28 06:54:13;;;;;;;15.07;9.48;;;;;;;7.07;100.00;99463.38;5033818;28;20405;-71
2022/09/28 06:56:38;;;;;;;11.18;8.15;;;;;;;7.10;100.00;99460.22;5033452;28;20029;-70
2022/09/28 06:59:04;;;;;;;13.88;9.23;;;;;;;7.15;100.00;99463.00;5032391;28;20021;-72
2022/09/28 07:01:29;;;;;;;13.90;9.05;;;;;;;7.21;100.00;99461.25;5022498;28;20026;-73
2022/09/28 07:03:55;;;;;;;14.30;9.25;;;;;;;7.24;100.00;99466.97;5013040;28;20025;-71
2022/09/28 07:06:23;;;;;;;10.93;8.65;;;;;;;7.33;100.00;99470.09;5028954;28;20445;-71
2022/09/28 07:08:49;;;;;;;10.98;8.63;;;;;;;7.40;100.00;99475.38;5012196;28;20026;-73
2022/09/28 07:11:14;;;;;;;12.00;8.27;;;;;;;7.44;100.00;99477.34;5013789;28;20038;-72
2022/09/28 07:13:40;;;;;;;12.48;9.10;;;;;;;7.49;100.00;99473.09;5022843;28;20472;-72
2022/09/28 07:16:05;;;;;;;11.70;8.30;;;;;;;7.52;100.00;99476.16;5032991;28;20423;-70
2022/09/28 07:18:30;;;;;;;11.95;8.20;;;;;;;7.52;100.00;99476.16;5031972;28;20031;-72
2022/09/28 07:20:56;;;;;;;11.68;8.10;;;;;;;7.56;100.00;99477.31;5027838;28;20068;-72
2022/09/28 07:23:22;;;;;;;12.82;8.15;;;;;;;7.61;100.00;99484.69;5013518;28;20037;-71
2022/09/28 07:25:48;;;;;;;13.02;7.72;;;;;;;7.66;100.00;99478.59;5028016;28;20176;-72
2022/09/28 07:28:16;;;;;;;11.90;8.45;;;;;;;7.74;100.00;99480.88;5013424;28;20037;-72
2022/09/28 07:30:43;;;;;;;12.20;7.68;;;;;;;7.79;100.00;99481.81;5012962;28;20022;-70
2022/09/28 07:33:11;;;;;;;10.95;7.43;;;;;;;7.86;100.00;99488.91;5018932;28;20487;-72
2022/09/28 07:35:36;;;;;;;10.77;7.03;;;;;;;7.89;100.00;99491.94;5021614;28;20037;-71
2022/09/28 07:38:05;;;;;;;11.75;6.72;;;;;;;7.98;100.00;99487.00;5032487;28;20029;-70
2022/09/28 07:43:19;;;;;;;11.45;7.10;;;;;;;8.06;100.00;99496.56;5023606;28;20091;-71
2022/09/28 07:45:46;;;;;;;11.60;6.90;;;;;;;8.10;100.00;99495.81;5012127;28;20549;-71
2022/09/28 07:48:14;;;;;;;10.32;7.07;;;;;;;8.13;100.00;99494.53;5011187;28;20033;-69
2022/09/28 07:50:40;;;;;;;11.02;6.82;;;;;;;8.19;100.00;99493.56;5012386;28;20447;-71
2022/09/28 07:53:05;;;;;;;9.82;6.68;;;;;;;8.27;100.00;99501.25;5013612;28;20022;-73
2022/09/28 07:55:31;;;;;;;8.55;5.90;;;;;;;8.33;100.00;99497.59;5033991;28;20033;-69
2022/09/28 07:57:59;;;;;;;11.10;6.32;;;;;;;8.40;100.00;99500.13;5030777;28;20033;-70
2022/09/28 08:00:25;;;;;;;13.35;6.43;;;;;;;8.49;100.00;99508.66;5031083;28;20025;-70
2022/09/28 08:02:51;;;;;;;9.18;6.82;;;;;;;8.56;100.00;99501.25;5012239;28;20084;-69
2022/09/28 08:05:17;;;;;;;7.40;6.53;;;;;;;8.57;100.00;99499.34;5012377;28;20025;-70
2022/09/28 08:07:43;;;;;;;7.00;6.30;;;;;;;8.64;100.00;99502.72;5027212;28;20052;-69
2022/09/28 08:10:09;;;;;;;10.15;6.68;;;;;;;8.68;100.00;99506.53;5012137;28;20053;-69
2022/09/28 08:12:34;;;;;;;11.52;7.05;;;;;;;8.67;100.00;99510.31;5024552;28;20037;-70
2022/09/28 08:15:00;;;;;;;10.48;7.18;;;;;;;8.72;100.00;99506.88;5012945;28;20092;-70
2022/09/28 08:17:25;;;;;;;9.30;6.95;;;;;;;8.79;100.00;99511.03;5016480;28;20026;-70
2022/09/28 08:22:35;;;;;;;9.55;6.03;;;;;;;8.93;100.00;99516.91;5016165;28;20068;-70
2022/09/28 08:25:00;;;;;;;8.23;6.60;;;;;;;8.93;100.00;99526.88;5035793;28;20526;-70
2022/09/28 08:27:26;;;;;;;10.35;6.68;;;;;;;9.01;100.00;99521.91;5036014;28;20033;-70
2022/09/28 08:29:51;;;;;;;10.98;6.40;;;;;;;9.05;100.00;99528.41;5023778;28;20033;-69
2022/09/28 08:32:17;;;;;;;11.75;7.05;;;;;;;9.14;100.00;99525.31;5015936;28;20030;-70
2022/09/28 08:34:43;;;;;;;13.75;6.75;;;;;;;9.18;100.00;99515.66;5030776;28;20033;-70
2022/09/28 08:37:08;;;;;;;16.55;7.20;;;;;;;9.20;100.00;99527.81;5035604;28;20022;-68
2022/09/28 08:39:34;;;;;;;11.88;6.00;;;;;;;9.28;100.00;99531.97;5035490;28;20021;-72
2022/09/28 08:42:21;;;;;;;11.52;6.05;;;;;;;9.33;100.00;99534.75;5020428;28;20032;-70
2022/09/28 08:44:52;;;;;;;8.75;5.55;;;;;;;9.32;100.00;99538.50;5022223;28;20030;-71
2022/09/28 08:50:16;;;;;;;8.50;5.43;;;;;;;9.46;100.00;99544.38;5035669;28;20040;-72
2022/09/28 08:52:46;;;;;;;9.15;5.65;;;;;;;9.53;100.00;99545.00;5021175;28;20029;-72
2022/09/28 08:55:36;;;;;;;11.48;6.00;;;;;;;9.63;100.00;99546.19;5029344;28;20033;-71
2022/09/28 08:58:22;;;;;;;10.30;5.47;;;;;;;9.71;100.00;99549.28;5014231;28;20117;-73
2022/09/28 09:00:50;;;;;;;8.93;5.50;;;;;;;9.78;100.00;99542.88;5012881;28;20310;-70
2022/09/28 09:03:20;;;;;;;10.20;5.10;;;;;;;9.87;100.00;99544.06;5027412;28;20465;-70
2022/09/28 09:06:24;;;;;;;11.88;5.22;;;;;;;9.95;100.00;99551.75;5014996;28;20528;-71
2022/09/28 09:09:12;;;;;;;9.80;4.70;;;;;;;9.95;100.00;99546.34;5016480;28;20444;-71
2022/09/28 09:12:06;;;;;;;10.63;5.35;;;;;;;10.09;100.00;99552.97;5029370;28;20052;-69
2022/09/28 09:15:08;;;;;;;7.93;5.07;;;;;;;10.04;100.00;99558.31;5015676;28;20463;-71
2022/09/28 09:17:59;;;;;;;8.73;4.90;;;;;;;10.11;100.00;99567.06;5029805;28;20040;-69
2022/09/28 09:20:31;;;;;;;8.05;5.43;;;;;;;10.12;100.00;99557.06;5035294;28;20128;-70
2022/09/28 09:22:59;;;;;;;9.88;4.90;;;;;;;10.10;100.00;99570.03;5023862;28;20032;-70
2022/09/28 09:25:38;;;;;;;8.68;5.13;;;;;;;10.13;100.00;99565.97;5034839;28;20104;-71
2022/09/28 09:28:12;;;;;;;8.85;4.60;;;;;;;10.20;100.00;99570.09;5027917;28;20021;-72
2022/09/28 09:30:44;;;;;;;11.00;5.22;;;;;;;10.29;100.00;99579.38;5016980;28;20473;-69
2022/09/28 09:33:27;;;;;;;7.88;4.20;;;;;;;10.44;100.00;99569.84;5015316;28;20025;-73
2022/09/28 09:36:19;;;;;;;6.47;4.00;;;;;;;10.57;100.00;99574.03;5027382;28;20021;-74
2022/09/28 09:39:04;;;;;;;7.32;4.10;;;;;;;10.59;100.00;99578.09;5008488;28;20104;-71
2022/09/28 09:41:53;;;;;;;9.20;4.20;;;;;;;10.69;100.00;99577.41;5022970;28;20030;-69
2022/09/28 09:44:50;;;;;;;8.18;3.85;;;;;;;10.82;100.00;99578.84;5031629;28;20026;-70
2022/09/28 09:47:29;;;;;;;5.95;4.10;;;;;;;10.87;100.00;99578.91;5046339;28;20192;-71
2022/09/28 09:50:01;;;;;;;11.40;3.95;;;;;;;10.92;100.00;99580.84;5023993;28;20024;-70
2022/09/28 09:52:56;;;;;;;12.35;4.32;;;;;;;10.93;100.00;99583.28;5027494;28;20030;-70
2022/09/28 09:55:26;;;;;;;12.25;4.40;;;;;;;10.94;100.00;99584.09;5028843;28;20029;-71
2022/09/28 09:58:09;;;;;;;7.32;3.58;;;;;;;11.01;100.00;99576.56;5035036;28;20088;-74
2022/09/28 10:00:38;;;;;;;6.43;3.10;;;;;;;11.09;100.00;99586.91;5021567;28;20021;-73
2022/09/28 10:03:03;;;;;;;9.25;3.42;;;;;;;11.10;100.00;99576.91;5026002;28;20115;-72
2022/09/28 10:05:33;;;;;;;6.07;3.00;;;;;;;11.09;100.00;99581.50;5030539;28;20453;-71
2022/09/28 10:08:07;;;;;;;6.85;3.28;;;;;;;11.08;100.00;99579.88;5031033;28;20022;-70
2022/09/28 10:10:38;;;;;;;5.20;3.13;;;;;;;11.15;100.00;99579.66;5034584;28;20021;-73
2022/09/28 10:13:04;;;;;;;7.40;3.42;;;;;;;11.27;100.00;99582.16;5032463;28;20029;-71
2022/09/28 10:15:36;;;;;;;7.88;3.70;;;;;;;11.31;100.00;99583.28;5041628;28;20536;-72
2022/09/28 10:18:09;;;;;;;10.50;3.90;;;;;;;11.41;100.00;99580.63;5014128;28;20103;-70
2022/09/28 10:20:41;;;;;;;7.93;3.72;;;;;;;11.39;100.00;99574.66;5020814;28;20045;-72
2022/09/28 10:23:12;;;;;;;;;;;;;;;11.48;100.00;99588.53;5023087;28;20032;-73
2022/09/28 10:25:38;;;;;;;6.57;3.17;;;;;;;11.61;100.00;99573.69;5015856;28;19910;-72
2022/09/28 10:28:12;;;;;;;8.73;3.40;;;;;;;11.71;100.00;99579.16;5013600;28;20501;-70
2022/09/28 10:30:40;;;;;;;6.15;3.17;;;;;;;11.74;100.00;99573.22;5029648;28;20029;-73
2022/09/28 10:33:27;;;;;;;6.78;3.38;;;;;;;11.69;100.00;99574.00;5022214;28;20026;-73
2022/09/28 10:35:52;;;;;;;5.03;2.80;;;;;;;11.60;100.00;99572.06;5013555;28;20465;-73
2022/09/28 10:38:18;;;;;;;8.15;3.53;;;;;;;11.63;100.00;99575.06;5045198;28;20036;-70
2022/09/28 10:40:49;;;;;;;6.70;3.35;;;;;;;11.61;100.00;99574.53;5014222;28;20030;-71
2022/09/28 10:43:43;;;;;;;7.80;3.53;;;;;;;11.57;100.00;99576.13;5014110;28;20092;-74
2022/09/28 10:46:12;;;;;;;9.30;4.18;;;;;;;11.48;100.00;99573.09;5005235;28;20037;-73
2022/09/28 10:48:46;;;;;;;6.97;3.78;;;;;;;11.44;100.00;99577.38;5027439;28;20435;-71
2022/09/28 10:51:11;;;;;;;8.27;3.88;;;;;;;11.47;100.00;99574.19;5033798;28;20040;-71
2022/09/28 10:53:37;;;;;;;6.30;3.55;;;;;;;11.43;100.00;99572.22;5017613;28;20029;-72
2022/09/28 10:56:20;;;;;;;7.07;3.50;;;;;;;11.46;100.00;99569.03;5027358;28;20112;-73
2022/09/28 10:58:46;;;;;;;3.95;2.50;;;;;;;11.57;100.00;99578.03;5033615;28;20037;-71
2022/09/28 11:01:21;;;;;;;5.97;2.55;;;;;;;11.67;100.00;99570.75;5015924;28;20084;-74
2022/09/28 11:04:00;;;;;;;5.38;2.50;;;;;;;11.75;100.00;99572.13;5013611;28;20033;-71
2022/09/28 11:06:37;;;;;;;5.15;2.55;;;;;;;11.82;100.00;99570.00;5013604;28;20026;-73
2022/09/28 11:09:14;;;;;;;5.18;2.80;;;;;;;11.92;100.00;99571.94;5017377;28;20416;-72
2022/09/28 11:11:40;;;;;;;8.95;2.67;;;;;;;11.98;100.00;99570.91;5028700;28;20029;-71
2022/09/28 11:14:37;;;;;;;5.28;2.65;;;;;;;12.12;100.00;99573.13;5015137;28;20242;-70
2022/09/28 11:17:23;;;;;;;6.15;2.42;;;;;;;12.28;100.00;99572.09;5032531;28;20037;-71
2022/09/28 11:19:48;;;;;;;2.60;1.58;;;;;;;12.33;98.80;99574.00;5029763;28;20039;-70
2022/09/28 11:22:21;;;;;;;4.00;1.45;;;;;;;12.37;100.00;99573.19;5030735;28;20060;-71
2022/09/28 11:24:48;;;;;;;12.02;2.28;;;;;;;12.33;100.00;99574.00;5026374;28;20472;-72
2022/09/28 11:27:25;;;;;;;4.82;1.80;;;;;;;12.35;100.00;99567.22;5043411;28;20372;-69
2022/09/28 11:29:57;;;;;;;5.05;1.77;;;;;;;12.35;100.00;99577.25;5028337;28;20048;-72
2022/09/28 11:32:27;;;;;;;2.87;1.60;;;;;;;12.33;100.00;99569.38;5030891;28;20040;-70
2022/09/28 11:34:57;;;;;;;5.43;1.75;;;;;;;12.34;97.35;99572.91;5022139;28;20284;-69
2022/09/28 11:37:34;;;;;;;9.38;2.97;;;;;;;12.28;94.96;99580.22;5012873;28;20033;-73
2022/09/28 11:40:11;;;;;;;7.03;2.35;;;;;;;12.20;99.49;99573.41;5016310;28;20120;-72
2022/09/28 11:42:39;;;;;;;4.68;2.22;;;;;;;12.18;100.00;99578.31;5024712;28;20053;-68
2022/09/28 11:45:25;;;;;;;4.85;2.30;;;;;;;12.22;100.00;99570.44;5012463;28;20034;-70
2022/09/28 11:48:00;;;;;;;6.93;2.45;;;;;;;12.38;100.00;99574.00;5012595;28;20495;-71
2022/09/28 11:50:30;;;;;;;4.90;2.80;;;;;;;12.52;100.00;99569.69;5022004;28;20036;-70
2022/09/28 11:53:24;;;;;;;3.97;2.47;;;;;;;12.66;100.00;99575.38;5030575;28;20033;-69
2022/09/28 11:56:26;;;;;;;5.75;2.47;;;;;;;12.62;100.00;99568.06;5030019;28;20026;-70